• Join FlightAware (Why Join?)
  • Login
  • US Flag 
12:32AM EDT


 

Airport Tracker/Info


-or-


 

Live Flight TrackerFlight Track Log ✈ GEC8223 ✈ 30-Jan-2014 ✈ KDFW - EDDF / FRA

Flight Track Log - Related Links

Times and Time Zones

All times are in EST time to prevent confusion due to time zone crossing. See the GEC8223 flight status page for this flight to view local times or setup timezone preferences in your user account.

Time Position Orientation Groundspeed Altitude Reporting Facility
EST Latitude Longitude Course Direction KTS MPH feet Rate Location/Type
06:06AM 32.8653 -97.0504 180° South 168 193 2,100  Level FlightAware ADS-B (KAFW)
06:06AM 32.8486 -97.0441 162° South 206 237 2,600 1,320 Climbing FlightAware ADS-B
06:07AM 32.8342 -97.0328 147° Southeast 216 249 3,000 1,620 Climbing FlightAware ADS-B (KAFW)
06:07AM 32.8134 -97.0157 145° Southeast 231 266 3,800 1,560 Climbing FlightAware ADS-B (KAFW)
06:08AM 32.8098 -97.0127 146° Southeast 263 303 4,100 1,500 Climbing FlightAware ADS-B
06:08AM 32.7803 -96.9852 142° Southeast 278 320 4,700 2,280 Climbing FlightAware ADS-B (KAFW)
06:08AM 32.7675 -96.9535 116° Southeast 307 353 5,500 2,700 Climbing FlightAware ADS-B (KAFW)
06:08AM 32.7635 -96.9132 97° East 320 368 6,700 2,700 Climbing FlightAware ADS-B
06:09AM 32.7658 -96.8849 84° East 330 380 7,300 2,700 Climbing FlightAware ADS-B (KAFW)
06:09AM 32.7689 -96.8487 84° East 333 383 8,400 3,000 Climbing FlightAware ADS-B (KAFW)
06:09AM 32.7717 -96.8292 80° East 344 396 9,100 2,340 Climbing FlightAware ADS-B
06:10AM 32.7880 -96.7811 68° East 352 405 10,000 2,160 Climbing FlightAware ADS-B (KAFW)
06:11AM 32.8367 -96.6632 64° Northeast 398 458 12,200 1,980 Climbing FlightAware ADS-B (KAFW)
06:11AM 32.8709 -96.5789 94° East 432 497 13,300 2,040 Climbing FlightAware ADS-B (KAFW)
06:12AM 32.9064 -96.4909 64° Northeast 446 513 15,000 2,520 Climbing FlightAware ADS-B (KAFW)
06:13AM 32.9386 -96.4105 64° Northeast 452 520 16,600 2,220 Climbing FlightAware ADS-B (KAFW)
06:13AM 32.9715 -96.3033 70° East 478 550 18,000 2,160 Climbing FlightAware ADS-B (KAFW)
06:14AM 32.9838 -96.1972 82° East 483 556 19,700 2,100 Climbing FlightAware ADS-B (KAFW)
06:15AM 32.9934 -96.1125 82° East 495 570 20,700 1,980 Climbing FlightAware ADS-B (KAFW)
06:17AM 33.0353 -95.7195 83° East 508 585 25,500 2,040 Climbing FlightAware ADS-B (KHOU)
06:18AM 33.0449 -95.6265 83° East 504 580 26,700 1,860 Climbing FlightAware ADS-B (KHOU)
06:18AM 33.0532 -95.5455 83° East 505 581 27,500 1,860 Climbing FlightAware ADS-B (KHOU)
06:19AM 33.0756 -95.3341 83° East 493 567 30,100 1,680 Climbing FlightAware ADS-B (KHOU)
06:20AM 33.0841 -95.2540 83° East 492 566 30,600 660 Climbing FlightAware ADS-B (KHOU)
06:21AM 33.0976 -95.1260 83° East 490 564 31,000 300 Climbing FlightAware ADS-B (KHOU)
06:21AM 33.1065 -95.0382 83° East 491 565 31,000  Level FlightAware ADS-B (KHOU)
06:22AM 33.1155 -94.9514 83° East 491 565 31,000  Level FlightAware ADS-B (KHOU)
06:22AM 33.1202 -94.9064 83° East 491 565 31,000  Level FlightAware ADS-B (KDTN)
06:22AM 33.1237 -94.8721 83° East 491 565 31,000  Level FlightAware ADS-B (KHOU)
06:23AM 33.1313 -94.7981 83° East 490 564 31,000  Level FlightAware ADS-B (KDTN)
06:23AM 33.1320 -94.7912 83° East 491 565 31,000  Level FlightAware ADS-B (KHOU)
06:23AM 33.1398 -94.7104 83° East 493 567 31,000  Level FlightAware ADS-B (KHOU)
06:23AM 33.1420 -94.6889 83° East 492 566 31,000  Level FlightAware ADS-B (KDTN)
06:24AM 33.1478 -94.6309 83° East 491 565 31,000  Level FlightAware ADS-B (KHOU)
06:24AM 33.1527 -94.5805 83° East 489 563 31,000  Level FlightAware ADS-B (KDTN)
06:24AM 33.1543 -94.5634 84° East 489 563 31,000  Level FlightAware ADS-B (KHOU)
06:25AM 33.1627 -94.4774 83° East 487 560 31,000  Level FlightAware ADS-B (KDTN)
06:25AM 33.1635 -94.4694 83° East 488 562 31,000  Level FlightAware ADS-B (KHOU)
06:25AM 33.1714 -94.3894 83° East 488 562 31,000  Level FlightAware ADS-B (KHOU)
06:25AM 33.1723 -94.3798 83° East 488 562 31,000  Level FlightAware ADS-B (KDTN)
06:26AM 33.1792 -94.3098 83° East 490 564 31,000  Level FlightAware ADS-B (KHOU)
06:26AM 33.1838 -94.2615 83° East 491 565 31,000  Level FlightAware ADS-B (KDTN)
06:26AM 33.1852 -94.2464 83° East 493 567 31,000  Level FlightAware ADS-B (KHOU)
06:27AM 33.1937 -94.1585 83° East 494 568 31,000  Level FlightAware ADS-B (KDTN)
06:27AM 33.2046 -94.0443 83° East 495 570 31,000  Level FlightAware ADS-B (KDTN)
06:28AM 33.2147 -93.9362 84° East 497 572 31,000  Level FlightAware ADS-B (KDTN)
06:29AM 33.2248 -93.8278 84° East 497 572 31,000  Level FlightAware ADS-B (KDTN)
06:29AM 33.2346 -93.7210 84° East 497 572 31,000  Level FlightAware ADS-B (KDTN)
06:30AM 33.2444 -93.6154 84° East 497 572 31,000  Level FlightAware ADS-B (KDTN)
06:31AM 33.2545 -93.5024 84° East 495 570 31,000  Level FlightAware ADS-B (KDTN)
06:31AM 33.2641 -93.3942 84° East 493 567 31,000  Level FlightAware ADS-B (KDTN)
06:32AM 33.2736 -93.2890 84° East 492 566 31,000  Level FlightAware ADS-B (KDTN)
06:33AM 33.2832 -93.1780 84° East 491 565 31,000  Level FlightAware ADS-B (KDTN)
06:34AM 33.2847 -93.1613 84° East 493 567 31,000  Level FlightAware ADS-B (KDTN)
06:35AM 33.3098 -92.8702 84° East 495 570 31,100  Climbing FlightAware ADS-B (KDTN)
06:36AM 33.3239 -92.7017 84° East 495 570 31,000 -120 Descending FlightAware ADS-B (KDTN)
06:36AM 33.3339 -92.5798 84° East 496 571 31,000  Level FlightAware ADS-B (KDTN)
06:37AM 33.3427 -92.4714 84° East 496 571 31,000  Level FlightAware ADS-B (KDTN)
06:38AM 33.3517 -92.3609 84° East 495 570 31,000  Level FlightAware ADS-B (KDTN)
06:38AM 33.3605 -92.2524 84° East 493 567 31,000  Level FlightAware ADS-B (KDTN)
06:39AM 33.3691 -92.1422 85° East 490 564 31,000  Level FlightAware ADS-B (KCWS)
06:40AM 33.3775 -92.0372 85° East 489 563 31,000  Level FlightAware ADS-B (KCWS)
06:41AM 33.3899 -91.8766 85° East 492 566 31,000  Level FlightAware ADS-B (KDTN)
06:42AM 33.4046 -91.6840 85° East 492 566 31,000  Level FlightAware ADS-B (KCWS)
06:43AM 33.4117 -91.5764 85° East 494 568 31,000  Level Fort Worth Center
06:44AM 33.4233 -91.4144 85° East 491 565 31,000 -60 Level Fort Worth Center
06:45AM 33.4339 -91.2531 85° East 489 563 30,900 -60 Descending Fort Worth Center
06:46AM 33.4475 -91.0931 84° East 486 559 30,900  Level Fort Worth Center
06:47AM 33.4581 -90.9300 86° East 489 563 31,000 60 Climbing Fort Worth Center
06:48AM 33.4694 -90.7747 85° East 492 566 31,100  Climbing Fort Worth Center
06:49AM 33.4803 -90.6092 85° East 497 572 31,000 -60 Descending Fort Worth Center
06:50AM 33.4933 -90.4133 85° East 498 573 31,000  Level Memphis Center
06:51AM 33.5031 -90.2472 86° East 499 574 31,000  Level Memphis Center
06:52AM 33.5142 -90.0797 85° East 501 577 31,000  Level Memphis Center
06:53AM 33.5247 -89.9147 86° East 498 573 31,000 -60 Level Memphis Center
06:54AM 33.5336 -89.7494 86° East 497 572 30,900  Descending Memphis Center
06:55AM 33.5436 -89.5831 86° East 498 573 31,000  Climbing Memphis Center
06:56AM 33.5533 -89.4136 86° East 504 580 31,000  Level Memphis Center
06:57AM 33.5631 -89.2414 86° East 513 590 31,000  Level Memphis Center
06:58AM 33.5725 -89.0700 86° East 516 594 31,000  Level Memphis Center
06:59AM 33.5822 -88.8964 86° East 520 598 31,000  Level Memphis Center
07:00AM 33.5906 -88.7097 87° East 524 603 31,000  Level Memphis Center
07:01AM 33.5994 -88.5353 86° East 525 604 31,000  Level Memphis Center
07:02AM 33.6086 -88.3611 86° East 526 605 31,000  Level Memphis Center
07:03AM 33.6161 -88.1853 87° East 530 610 31,000  Level Memphis Center
07:04AM 33.6242 -88.0114 87° East 527 606 31,000  Level Memphis Center
07:05AM 33.6328 -87.8353 87° East 529 609 31,000  Level Memphis Center
07:06AM 33.6394 -87.6608 87° East 528 608 31,000  Level Memphis Center
07:07AM 33.6467 -87.4861 87° East 529 609 31,000  Level Memphis Center
07:08AM 33.6519 -87.3378 88° East 532 612 31,000  Level Atlanta Center
07:09AM 33.6586 -87.1583 87° East 532 612 31,000  Level Atlanta Center
07:10AM 33.6653 -86.9839 87° East 532 612 31,000  Level Atlanta Center
07:11AM 33.6922 -86.8075 80° East 532 612 31,000  Level Atlanta Center
07:12AM 33.7525 -86.6247 68° East 532 612 31,000  Level Atlanta Center
07:13AM 33.8039 -86.4539 70° East 527 606 31,000  Level Atlanta Center
07:14AM 33.8531 -86.2875 70° East 532 612 31,000  Level Atlanta Center
07:15AM 33.9019 -86.1186 71° East 532 612 31,000 -60 Level Atlanta Center
07:16AM 33.9528 -85.9469 70° East 532 612 30,900  Descending Atlanta Center
07:17AM 34.0053 -85.7778 69° East 544 626 31,000 240 Climbing Atlanta Center
07:23AM 34.3026 -84.7323 69° East 551 634 33,000 240 Climbing FlightAware ADS-B (KDZJ)
07:23AM 34.3354 -84.6165 71° East 555 639 33,000  Level FlightAware ADS-B (KDZJ)
07:24AM 34.3677 -84.5003 71° East 560 644 33,000  Level FlightAware ADS-B (KDZJ)
07:25AM 34.4014 -84.3796 71° East 562 647 33,000  Level FlightAware ADS-B (KDZJ)
07:25AM 34.4341 -84.2610 71° East 563 648 33,000  Level FlightAware ADS-B (KDZJ)
07:26AM 34.4672 -84.1410 71° East 563 648 33,000  Level FlightAware ADS-B (KDZJ)
07:27AM 34.4942 -84.0430 71° East 564 649 33,000  Level FlightAware ADS-B (KDZJ)
07:27AM 34.5317 -83.9056 72° East 571 657 33,000  Level FlightAware ADS-B (KDZJ)
07:28AM 34.5655 -83.7814 72° East 574 661 33,000  Level FlightAware ADS-B (KDZJ)
07:29AM 34.5991 -83.6574 72° East 580 667 33,000 60 Level FlightAware ADS-B (KDZJ)
07:29AM 34.6330 -83.5324 72° East 582 670 33,100 60 Climbing FlightAware ADS-B (KDZJ)
07:30AM 34.6667 -83.4068 72° East 584 672 33,100 -120 Level FlightAware ADS-B (KDZJ)
07:31AM 34.6991 -83.2853 72° East 584 672 33,000 -60 Descending FlightAware ADS-B (KDZJ)
07:32AM 34.7469 -83.0959 73° East 580 667 33,000  Level FlightAware ADS-B (KDZJ)
07:32AM 34.7794 -82.9653 73° East 580 667 33,000  Level FlightAware ADS-B (KDZJ)
07:33AM 34.8079 -82.8494 73° East 580 667 33,000  Level FlightAware ADS-B (KDZJ)
07:34AM 34.8341 -82.7440 73° East 583 671 33,000  Level FlightAware ADS-B (KDZJ)
07:34AM 34.8728 -82.5889 73° East 589 678 33,000  Level FlightAware ADS-B (KDZJ)
07:35AM 34.9039 -82.4624 73° East 590 679 33,000 60 Level FlightAware ADS-B (KDZJ)
07:36AM 34.9506 -82.2708 73° East 599 689 33,100  Climbing FlightAware ADS-B (KDZJ)
07:38AM 35.0214 -81.9774 73° East 607 699 33,000 -60 Descending FlightAware ADS-B (KDZJ)
07:39AM 35.0736 -81.7775 73° East 601 692 33,000  Level Atlanta Center
07:40AM 35.1283 -81.5831 71° East 601 692 33,000  Level Atlanta Center
07:41AM 35.1828 -81.3883 71° East 601 692 33,000  Level Atlanta Center
07:42AM 35.2347 -81.1958 72° East 601 692 33,000  Level Atlanta Center
07:43AM 35.2883 -81.0006 71° East 601 692 33,000  Level Atlanta Center
07:44AM 35.3475 -80.7847 71° East 607 699 33,000  Level Atlanta Center
07:45AM 35.4006 -80.5889 72° East 607 699 33,000  Level Atlanta Center
07:47AM 35.5186 -80.1422 72° East 600 690 33,000  Level Washington Center
07:48AM 35.5669 -79.9686 71° East 600 690 33,000  Level Washington Center
07:49AM 35.6197 -79.7722 72° East 595 685 33,000  Level Washington Center
07:55AM 36.0374 -78.6301 72° East 613 705 33,000  Level FlightAware ADS-B
08:01AM 36.4585 -77.4569 66° East 615 708 33,000  Level FlightAware ADS-B (KWWD)
08:01AM 36.4941 -77.3559 66° East 616 709 33,000  Level FlightAware ADS-B (KWWD)
08:03AM 36.5956 -77.0647 66° East 616 709 33,000  Level FlightAware ADS-B (KWWD)
08:04AM 36.6403 -76.9357 67° East 615 708 33,000  Level FlightAware ADS-B (KWWD)
08:04AM 36.6826 -76.8135 67° East 616 709 33,000  Level FlightAware ADS-B (KWWD)
08:05AM 36.7290 -76.6790 67° East 616 709 33,000  Level FlightAware ADS-B (KWWD)
08:06AM 36.7720 -76.5533 67° East 616 709 33,000  Level FlightAware ADS-B (KWWD)
08:06AM 36.8095 -76.4430 67° East 616 709 33,000  Level FlightAware ADS-B (KWWD)
08:07AM 36.8668 -76.2711 67° East 615 708 33,000  Level FlightAware ADS-B (KWWD)
08:08AM 36.8895 -76.1553 76° East 608 700 33,000  Level FlightAware ADS-B (KWWD)
08:08AM 36.8972 -75.9971 86° East 602 693 33,000  Level FlightAware ADS-B (KWWD)
08:09AM 36.9003 -75.8858 88° East 604 695 33,000  Level FlightAware ADS-B
08:10AM 36.9036 -75.7483 88° East 607 699 33,000  Level FlightAware ADS-B
08:10AM 36.9068 -75.6122 88° East 609 701 33,000  Level FlightAware ADS-B (KWWD)
08:11AM 36.9104 -75.4481 88° East 612 704 33,000  Level FlightAware ADS-B (KWWD)
08:12AM 36.9135 -75.3022 88° East 616 709 33,000 60 Level FlightAware ADS-B (KWWD)
08:12AM 36.9167 -75.1520 88° East 618 711 33,100  Climbing FlightAware ADS-B (KWWD)
08:13AM 36.9186 -75.0424 89° East 616 709 33,000 -120 Descending FlightAware ADS-B
08:14AM 36.9219 -74.8550 89° East 617 710 33,000  Level FlightAware ADS-B (KWWD)
08:15AM 36.9247 -74.6757 89° East 610 702 33,000  Level FlightAware ADS-B (KWWD)
08:15AM 36.9268 -74.5490 89° East 606 697 33,000 60 Level FlightAware ADS-B
08:16AM 36.9287 -74.4061 89° East 600 690 33,100 60 Climbing FlightAware ADS-B
08:17AM 36.9302 -74.2943 89° East 592 681 33,100 -120 Level FlightAware ADS-B
08:17AM 36.9318 -74.1453 89° East 580 667 33,000 -120 Descending FlightAware ADS-B
08:18AM 36.9327 -74.0412 89° East 609 701 33,000  Level FlightAware ADS-B (KWWD)
08:18AM 36.9336 -73.9401 89° East 578 665 33,000  Level FlightAware ADS-B
08:20AM 36.9850 -73.6786 89° East 574 661 33,000  Level New York Center
08:25AM 37.5276 -72.6267 89° East 616 709 33,000  Level FlightAware ADS-B (KWWD)
08:26AM 37.5878 -72.5063 58° Northeast 617 710 33,100 60 Climbing FlightAware ADS-B (KWWD)
08:27AM 37.6726 -72.3365 58° Northeast 618 711 33,100 -120 Level FlightAware ADS-B (KWWD)
08:27AM 37.7214 -72.2378 58° Northeast 614 707 33,000 -120 Descending FlightAware ADS-B (KWWD)
08:29AM 37.8242 -72.0292 58° Northeast 615 708 32,900  Descending New York Center
08:30AM 37.9139 -71.8439 58° Northeast 614 707 33,000  Climbing New York Center
08:31AM 38.0072 -71.6553 58° Northeast 614 707 33,000  Level New York Center
08:32AM 38.0961 -71.4692 59° Northeast 614 707 33,100  Climbing New York Center
08:33AM 38.1869 -71.2878 57° Northeast 619 712 33,000 -60 Descending New York Center
08:34AM 38.2772 -71.0928 59° Northeast 619 712 33,000 -60 Level New York Center
08:35AM 38.3653 -70.9103 58° Northeast 613 705 32,900  Descending New York Center
08:36AM 38.4531 -70.7250 59° Northeast 613 705 33,000  Climbing New York Center
08:37AM 38.5406 -70.5444 58° Northeast 608 700 33,000  Level New York Center
08:38AM 38.6278 -70.3531 60° Northeast 608 700 33,000  Level New York Center
08:39AM 38.7144 -70.1661 59° Northeast 608 700 33,000  Level New York Center
08:40AM 38.8072 -69.9736 58° Northeast 613 705 33,000  Level New York Center
08:41AM 38.8894 -69.7886 60° Northeast 613 705 33,000  Level New York Center
08:42AM 38.9692 -69.6142 60° Northeast 613 705 33,000  Level New York Center
08:43AM 39.0589 -69.4203 59° Northeast 630 725 33,000  Level New York Center
08:44AM 39.1525 -69.2203 59° Northeast 608 700 33,000 -60 Level New York Center
08:45AM 39.2375 -69.0283 60° Northeast 601 692 32,900 -60 Descending New York Center
08:46AM 39.3264 -68.8331 59° Northeast 613 705 32,900  Level New York Center
08:47AM 39.4108 -68.6453 60° Northeast 613 705 33,000  Climbing New York Center
08:48AM 39.4989 -68.4436 60° Northeast 619 712 33,000 -60 Level New York Center
08:49AM 39.5806 -68.2553 61° Northeast 613 705 32,900 -60 Descending New York Center
08:50AM 39.6858 -68.0169 60° Northeast 618 711 32,900  Level New York Center
08:51AM 39.7686 -67.8192 61° Northeast 618 711 33,000  Climbing New York Center
08:52AM 39.8553 -67.6183 61° Northeast 618 711 33,000  Level New York Center
08:53AM 39.9378 -67.4253 61° Northeast 618 711 33,000  Level New York Center
08:53AM 39.9167 -67.3500 53° Northeast 629 724 33,000  Level New York Oceanic (ODAPS)
08:54AM 40.0236 -67.2178 53° Northeast 625 719 33,000 -60 Level New York Center
08:55AM 40.1053 -67.0211 61° Northeast 631 726 32,900  Descending New York Center
08:55AM 40.1167 -67.0000 68° East 638 734 33,000  Climbing New York Oceanic (ODAPS)
08:56AM 40.1756 -66.8083 68° East 626 720 32,900  Descending New York Center
09:04AM 40.6167 -65.3500 69° East 643 740 33,000  Climbing New York Oceanic (ODAPS)
09:12AM 41.2000 -63.2333 71° East 645 742 33,000  Level New York Oceanic (ODAPS)
09:22AM 41.7333 -61.0833 71° East 645 742 33,000  Level New York Oceanic (ODAPS)
09:27AM 42.0000 -60.0000 71° East 644 741 33,000  Level New York Oceanic (ODAPS)
09:32AM 42.2667 -58.9000 72° East 646 743 33,000  Level New York Oceanic (ODAPS)
09:38AM 42.5833 -57.5500 73° East 645 742 33,000  Level New York Oceanic (ODAPS)
09:41AM 42.7833 -56.6667 74° East 649 747 33,000  Level New York Oceanic (ODAPS)
09:51AM 43.2500 -54.4000 75° East 652 750 33,000  Level New York Oceanic (ODAPS)
10:00AM 43.6667 -52.0833 77° East 652 750 33,000  Level New York Oceanic (ODAPS)
10:09AM 44.0000 -50.0000 50° Northeast 632 727 33,000  Level New York Oceanic (ODAPS)
10:11AM 44.1000 -49.8167 51° Northeast 628 723 33,000  Level New York Oceanic (ODAPS)
10:12AM 44.3299 -49.4393 51° Northeast 652 750 33,000  Level FlightAware Transoceanic
10:13AM 44.4392 -49.2510 51° Northeast 652 750 33,000  Level FlightAware Transoceanic
10:14AM 44.5482 -49.0620 51° Northeast 652 750 33,000  Level FlightAware Transoceanic
10:15AM 44.6570 -48.8722 51° Northeast 652 750 33,000  Level FlightAware Transoceanic
10:16AM 44.7654 -48.6818 51° Northeast 632 727 33,000  Level FlightAware Transoceanic
10:17AM 44.8647 -48.4933 51° Northeast 628 723 33,000  Level FlightAware Transoceanic
10:18AM 44.9727 -48.3014 52° Northeast 628 723 33,000  Level FlightAware Transoceanic
10:19AM 45.0804 -48.1088 52° Northeast 628 723 33,000  Level FlightAware Transoceanic
10:20AM 45.1877 -47.9155 52° Northeast 628 723 33,000  Level FlightAware Transoceanic
10:21AM 45.2947 -47.7214 52° Northeast 628 723 33,000  Level FlightAware Transoceanic
10:22AM 45.4014 -47.5266 52° Northeast 628 723 33,000  Level FlightAware Transoceanic
10:23AM 45.5077 -47.3310 52° Northeast 628 723 33,000  Level FlightAware Transoceanic
10:24AM 45.6137 -47.1348 52° Northeast 628 723 33,000  Level FlightAware Transoceanic
10:25AM 45.7194 -46.9377 53° Northeast 628 723 33,000  Level FlightAware Transoceanic
10:26AM 45.8247 -46.7400 53° Northeast 628 723 33,000  Level FlightAware Transoceanic
10:27AM 45.9297 -46.5414 53° Northeast 628 723 33,000  Level FlightAware Transoceanic
10:28AM 46.0344 -46.3422 53° Northeast 628 723 33,000  Level FlightAware Transoceanic
10:29AM 46.1387 -46.1421 53° Northeast 628 723 33,000  Level FlightAware Transoceanic
10:30AM 46.2426 -45.9413 53° Northeast 628 723 33,000  Level FlightAware Transoceanic
10:31AM 46.3462 -45.7398 53° Northeast 628 723 33,000  Level FlightAware Transoceanic
10:32AM 46.4495 -45.5375 54° Northeast 628 723 33,000  Level FlightAware Transoceanic
10:33AM 46.5523 -45.3344 54° Northeast 628 723 33,000  Level FlightAware Transoceanic
10:34AM 46.6549 -45.1306 54° Northeast 628 723 33,000  Level FlightAware Transoceanic
10:35AM 46.7570 -44.9259 54° Northeast 628 723 33,000  Level FlightAware Transoceanic
10:36AM 46.8588 -44.7206 54° Northeast 628 723 33,000  Level FlightAware Transoceanic
10:37AM 46.9602 -44.5144 54° Northeast 628 723 33,000  Level FlightAware Transoceanic
10:38AM 47.0613 -44.3074 54° Northeast 628 723 33,000  Level FlightAware Transoceanic
10:39AM 47.1620 -44.0997 55° Northeast 628 723 33,000  Level FlightAware Transoceanic
10:40AM 47.2623 -43.8912 55° Northeast 628 723 33,000  Level FlightAware Transoceanic
10:41AM 47.3622 -43.6818 55° Northeast 628 723 33,000  Level FlightAware Transoceanic
10:42AM 47.4617 -43.4717 55° Northeast 628 723 33,000  Level FlightAware Transoceanic
10:43AM 47.5609 -43.2608 55° Northeast 628 723 33,000  Level FlightAware Transoceanic
10:44AM 47.6596 -43.0491 55° Northeast 628 723 33,000  Level FlightAware Transoceanic
10:45AM 47.7580 -42.8366 56° Northeast 628 723 33,000  Level FlightAware Transoceanic
10:46AM 47.8560 -42.6233 56° Northeast 628 723 33,000  Level FlightAware Transoceanic
10:47AM 47.9536 -42.4092 56° Northeast 628 723 33,000  Level FlightAware Transoceanic
10:48AM 48.0508 -42.1942 56° Northeast 628 723 33,000  Level FlightAware Transoceanic
10:49AM 48.1475 -41.9785 56° Northeast 628 723 33,000  Level FlightAware Transoceanic
10:50AM 48.2439 -41.7620 56° Northeast 628 723 33,000  Level FlightAware Transoceanic
10:51AM 48.3399 -41.5446 57° Northeast 628 723 33,000  Level FlightAware Transoceanic
10:52AM 48.4355 -41.3264 57° Northeast 628 723 33,000  Level FlightAware Transoceanic
10:53AM 48.5306 -41.1074 57° Northeast 628 723 33,000  Level FlightAware Transoceanic
10:54AM 48.6253 -40.8876 57° Northeast 628 723 33,000  Level FlightAware Transoceanic
10:55AM 48.7196 -40.6669 57° Northeast 628 723 33,000  Level FlightAware Transoceanic
10:56AM 48.8135 -40.4454 57° Northeast 628 723 33,000  Level FlightAware Transoceanic
10:57AM 48.9070 -40.2231 58° Northeast 628 723 33,000  Level FlightAware Transoceanic
10:58AM 49.0000 -40.0000 61° Northeast 628 723 33,000  Level FlightAware Transoceanic
10:59AM 49.0830 -39.7713 61° Northeast 628 723 33,000  Level FlightAware Transoceanic
11:00AM 49.1655 -39.5419 61° Northeast 628 723 33,000  Level FlightAware Transoceanic
11:01AM 49.2476 -39.3117 61° Northeast 628 723 33,000  Level FlightAware Transoceanic
11:02AM 49.3292 -39.0807 62° Northeast 628 723 33,000  Level FlightAware Transoceanic
11:03AM 49.4104 -38.8490 62° Northeast 628 723 33,000  Level FlightAware Transoceanic
11:04AM 49.4911 -38.6165 62° Northeast 628 723 33,000  Level FlightAware Transoceanic
11:05AM 49.5713 -38.3832 62° Northeast 628 723 33,000  Level FlightAware Transoceanic
11:06AM 49.6510 -38.1492 62° Northeast 628 723 33,000  Level FlightAware Transoceanic
11:07AM 49.7303 -37.9144 63° Northeast 628 723 33,000  Level FlightAware Transoceanic
11:08AM 49.8091 -37.6788 63° Northeast 628 723 33,000  Level FlightAware Transoceanic
11:09AM 49.8874 -37.4425 63° Northeast 628 723 33,000  Level FlightAware Transoceanic
11:10AM 49.9653 -37.2054 63° Northeast 628 723 33,000  Level FlightAware Transoceanic
11:11AM 50.0426 -36.9675 63° Northeast 628 723 33,000  Level FlightAware Transoceanic
11:12AM 50.1195 -36.7289 63° Northeast 628 723 33,000  Level FlightAware Transoceanic
11:13AM 50.1959 -36.4895 64° Northeast 628 723 33,000  Level FlightAware Transoceanic
11:14AM 50.2718 -36.2494 64° Northeast 628 723 33,000  Level FlightAware Transoceanic
11:15AM 50.3472 -36.0085 64° Northeast 628 723 33,000  Level FlightAware Transoceanic
11:16AM 50.4221 -35.7668 64° Northeast 628 723 33,000  Level FlightAware Transoceanic
11:17AM 50.4964 -35.5243 64° Northeast 628 723 33,000  Level FlightAware Transoceanic
11:18AM 50.5703 -35.2811 65° Northeast 628 723 33,000  Level FlightAware Transoceanic
11:19AM 50.6437 -35.0372 65° Northeast 628 723 33,000  Level FlightAware Transoceanic
11:20AM 50.7165 -34.7924 65° Northeast 628 723 33,000  Level FlightAware Transoceanic
11:21AM 50.7889 -34.5469 65° Northeast 628 723 33,000  Level FlightAware Transoceanic
11:22AM 50.8607 -34.3007 65° Northeast 628 723 33,000  Level FlightAware Transoceanic
11:23AM 50.9320 -34.0537 66° East 628 723 33,000  Level FlightAware Transoceanic
11:24AM 51.0028 -33.8059 66° East 628 723 33,000  Level FlightAware Transoceanic
11:25AM 51.0731 -33.5574 66° East 628 723 33,000  Level FlightAware Transoceanic
11:26AM 51.1428 -33.3081 66° East 628 723 33,000  Level FlightAware Transoceanic
11:27AM 51.2121 -33.0581 66° East 628 723 33,000  Level FlightAware Transoceanic
11:28AM 51.2807 -32.8074 66° East 628 723 33,000  Level FlightAware Transoceanic
11:29AM 51.3489 -32.5558 67° East 628 723 33,000  Level FlightAware Transoceanic
11:30AM 51.4165 -32.3036 67° East 628 723 33,000  Level FlightAware Transoceanic
11:31AM 51.4835 -32.0506 67° East 628 723 33,000  Level FlightAware Transoceanic
11:32AM 51.5500 -31.7968 67° East 628 723 33,000  Level FlightAware Transoceanic
11:33AM 51.6160 -31.5423 67° East 628 723 33,000  Level FlightAware Transoceanic
11:34AM 51.6814 -31.2871 68° East 628 723 33,000  Level FlightAware Transoceanic
11:35AM 51.7462 -31.0312 68° East 628 723 33,000  Level FlightAware Transoceanic
11:36AM 51.8105 -30.7745 68° East 628 723 33,000  Level FlightAware Transoceanic
11:37AM 51.8742 -30.5170 68° East 628 723 33,000  Level FlightAware Transoceanic
11:38AM 51.9374 -30.2589 68° East 628 723 33,000  Level FlightAware Transoceanic
11:39AM 51.9961 -30.0162 68° East  Level FlightAware Approximate
11:40AM 52.0543 -29.7728 69° East  Level FlightAware Approximate
11:41AM 52.0318 -29.7797 77° East  Level FlightAware Approximate
11:42AM 52.0679 -29.5252 77° East  Level FlightAware Approximate
11:43AM 52.1035 -29.2702 77° East  Level FlightAware Approximate
11:44AM 52.1385 -29.0149 77° East  Level FlightAware Approximate
11:45AM 52.1730 -28.7592 78° East  Level FlightAware Approximate
11:46AM 52.2070 -28.5030 78° East  Level FlightAware Approximate
11:47AM 52.2403 -28.2465 78° East  Level FlightAware Approximate
11:48AM 52.2732 -27.9896 78° East  Level FlightAware Approximate
11:49AM 52.3054 -27.7323 78° East  Level FlightAware Approximate
11:50AM 52.3372 -27.4747 79° East  Level FlightAware Approximate
11:51AM 52.3683 -27.2167 79° East  Level FlightAware Approximate
11:52AM 52.3989 -26.9583 79° East  Level FlightAware Approximate
11:53AM 52.4289 -26.6996 79° East  Level FlightAware Approximate
11:54AM 52.4584 -26.4405 79° East  Level FlightAware Approximate
11:55AM 52.4872 -26.1810 80° East  Level FlightAware Approximate
11:56AM 52.5156 -25.9213 80° East  Level FlightAware Approximate
11:57AM 52.5433 -25.6612 80° East  Level FlightAware Approximate
11:58AM 52.5705 -25.4008 80° East  Level FlightAware Approximate
11:59AM 52.5971 -25.1400 80° East  Level FlightAware Approximate
12:00PM 52.6231 -24.8790 81° East  Level FlightAware Approximate
12:01PM 52.6486 -24.6176 81° East  Level FlightAware Approximate
12:02PM 52.6735 -24.3560 81° East  Level FlightAware Approximate
12:03PM 52.6978 -24.0940 81° East  Level FlightAware Approximate
12:04PM 52.7215 -23.8318 81° East  Level FlightAware Approximate
12:05PM 52.7447 -23.5692 82° East  Level FlightAware Approximate
12:06PM 52.7672 -23.3064 82° East  Level FlightAware Approximate
12:07PM 52.7892 -23.0434 82° East  Level FlightAware Approximate
12:08PM 52.8106 -22.7800 82° East  Level FlightAware Approximate
12:09PM 52.8314 -22.5164 82° East  Level FlightAware Approximate
12:10PM 52.8517 -22.2526 83° East  Level FlightAware Approximate
12:11PM 52.8713 -21.9885 83° East  Level FlightAware Approximate
12:12PM 52.8904 -21.7242 83° East  Level FlightAware Approximate
12:13PM 52.9089 -21.4596 83° East  Level FlightAware Approximate
12:14PM 52.9268 -21.1949 84° East  Level FlightAware Approximate
12:15PM 52.9441 -20.9299 84° East  Level FlightAware Approximate
12:16PM 52.9608 -20.6647 84° East  Level FlightAware Approximate
12:17PM 52.9769 -20.3993 84° East  Level FlightAware Approximate
12:18PM 52.9924 -20.1337 84° East  Level FlightAware Approximate
12:19PM 52.9989 -19.8674 91° East  Level FlightAware Approximate
12:20PM 52.9962 -19.6005 91° East  Level FlightAware Approximate
12:21PM 52.9929 -19.3337 91° East  Level FlightAware Approximate
12:22PM 52.9890 -19.0669 91° East  Level FlightAware Approximate
12:23PM 52.9846 -18.8001 91° East  Level FlightAware Approximate
12:24PM 52.9809 -18.5334 91° East  Level FlightAware Approximate
12:25PM 52.9772 -18.2666 91° East  Level FlightAware Approximate
12:26PM 52.9729 -18.0000 91° East  Level FlightAware Approximate
12:27PM 52.9681 -17.7333 92° East  Level FlightAware Approximate
12:28PM 52.9626 -17.4668 92° East  Level FlightAware Approximate
12:29PM 52.9565 -17.2003 92° East  Level FlightAware Approximate
12:30PM 52.9498 -16.9339 92° East  Level FlightAware Approximate
12:31PM 52.9425 -16.6675 92° East  Level FlightAware Approximate
12:32PM 52.9347 -16.4013 93° East  Level FlightAware Approximate
12:33PM 52.9262 -16.1352 93° East  Level FlightAware Approximate
12:34PM 52.9171 -15.8692 93° East  Level FlightAware Approximate
12:35PM 52.9075 -15.6032 93° East  Level FlightAware Approximate
12:36PM 52.8972 -15.3375 94° East  Level FlightAware Approximate
12:37PM 52.8864 -15.0718 94° East  Level FlightAware Approximate
12:38PM 52.8753 -14.8062 94° East  Level FlightAware Approximate
12:39PM 52.8638 -14.5408 94° East  Level FlightAware Approximate
12:40PM 52.8517 -14.2755 94° East  Level FlightAware Approximate
12:41PM 52.8389 -14.0103 94° East  Level FlightAware Approximate
12:42PM 52.8256 -13.7453 95° East  Level FlightAware Approximate
12:43PM 52.8117 -13.4805 95° East  Level FlightAware Approximate
12:44PM 52.7973 -13.2159 95° East  Level FlightAware Approximate
12:45PM 52.7822 -12.9514 95° East  Level FlightAware Approximate
12:46PM 52.7666 -12.6871 95° East  Level FlightAware Approximate
12:47PM 52.7503 -12.4230 96° East  Level FlightAware Approximate
12:48PM 52.7335 -12.1592 96° East  Level FlightAware Approximate
12:49PM 52.7161 -11.8955 96° East  Level FlightAware Approximate
12:50PM 52.6981 -11.6320 96° East  Level FlightAware Approximate
12:50PM 52.6724 -11.0415 96° East 565 650 35,000  Level FlightAware ADS-B (EICK / ORK)
12:50PM 52.6571 -10.8772 99° East 563 648 35,000  Level FlightAware ADS-B (EICK / ORK)
12:51PM 52.6434 -10.7337 99° East 562 647 35,000  Level FlightAware ADS-B (EICK / ORK)
12:51PM 52.6278 -10.5695 99° East 561 646 35,000  Level FlightAware ADS-B (EICK / ORK)
12:52PM 52.6140 -10.4265 99° East 561 646 35,000  Level FlightAware ADS-B (EICK / ORK)
12:53PM 52.5978 -10.2609 99° East 561 646 35,000  Level FlightAware ADS-B (EICK / ORK)
12:53PM 52.5790 -10.0692 99° East 561 646 35,000  Level FlightAware ADS-B (EICK / ORK)
12:54PM 52.5618 -9.8977 99° East 562 647 35,000  Level FlightAware ADS-B (EICK / ORK)
12:55PM 52.5445 -9.7294 100° East 563 648 35,000  Level FlightAware ADS-B (EICK / ORK)
12:56PM 52.5248 -9.5402 100° East 563 648 35,000  Level FlightAware ADS-B (EICK / ORK)
12:56PM 52.5071 -9.3730 100° East 565 650 35,000  Level FlightAware ADS-B (EICK / ORK)
12:57PM 52.4924 -9.2393 100° East 565 650 35,000  Level FlightAware ADS-B
12:57PM 52.4767 -9.0997 100° East 564 649 35,000  Level FlightAware ADS-B (EICK / ORK)
12:58PM 52.4501 -8.8639 100° East 1 1 35,000  Level FlightAware UK
12:59PM 52.4325 -8.7209 100° East 568 654 35,000  Level FlightAware ADS-B (EGAA / BFS)
01:00PM 52.4116 -8.5487 101° East 567 652 35,000 60 Level FlightAware ADS-B (EGAA / BFS)
01:00PM 52.3944 -8.4105 101° East 565 650 35,100 60 Climbing FlightAware ADS-B (EGAA / BFS)
01:01PM 52.3764 -8.2629 101° East 562 647 35,100 -120 Level FlightAware ADS-B (EICK / ORK)
01:01PM 52.3558 -8.0976 101° East 557 641 35,000 -120 Descending FlightAware ADS-B (EICK / ORK)
01:02PM 52.3398 -7.9731 102° East 554 638 35,000  Level FlightAware ADS-B
01:03PM 52.3166 -7.7946 102° East 551 634 35,000 -120 Level FlightAware ADS-B
01:03PM 52.2969 -7.6478 102° East 551 634 34,900  Descending FlightAware ADS-B (EICK / ORK)
01:04PM 52.2744 -7.4815 102° East 553 636 35,000 60 Climbing FlightAware ADS-B (EGAA / BFS)
01:04PM 52.2565 -7.3297 101° East 538 619 35,000  Level FlightAware ADS-B (EGAA / BFS)
01:05PM 52.2425 -7.1886 99° East 533 613 35,000  Level FlightAware ADS-B
01:05PM 52.2419 -7.1830 99° East 533 613 35,000  Level FlightAware ADS-B (EGAA / BFS)
01:06PM 52.2258 -7.0193 99° East 464 534 35,000  Level FlightAware UK
01:06PM 52.2140 -6.9171 99° East 531 611 35,000  Level FlightAware ADS-B
01:07PM 52.2003 -6.7830 99° East 462 532 35,000  Level FlightAware UK
01:07PM 52.1988 -6.7760 99° East 532 612 35,000  Level FlightAware ADS-B (EGAA / BFS)
01:07PM 52.1844 -6.6451 100° East 534 615 35,000  Level FlightAware ADS-B
01:08PM 52.1688 -6.5037 100° East 530 610 35,000  Level FlightAware ADS-B
01:09PM 52.1580 -6.4000 100° East 523 602 35,000  Level FlightAware ADS-B (EGFH / SWS)
01:09PM 52.1406 -6.2347 100° East 522 601 35,000  Level FlightAware ADS-B
01:10PM 52.1285 -6.1187 100° East 524 603 35,000  Level FlightAware ADS-B
01:10PM 52.1154 -5.9947 100° East 524 603 35,000  Level FlightAware ADS-B
01:11PM 52.0996 -5.8512 100° East 521 600 35,000  Level FlightAware ADS-B (EGAA / BFS)
01:11PM 52.0857 -5.7269 100° East 521 600 35,000  Level FlightAware ADS-B (EGBS)
01:12PM 52.0797 -5.6740 100° East 520 598 35,000  Level FlightAware ADS-B (EGBS)
01:12PM 52.0649 -5.5425 100° East 517 595 35,000  Level FlightAware ADS-B
01:13PM 52.0513 -5.4232 100° East 516 594 35,000  Level FlightAware ADS-B
01:13PM 52.0488 -5.4012 101° East 514 592 35,000  Level FlightAware ADS-B
01:13PM 52.0353 -5.2829 100° East 516 594 35,000  Level FlightAware ADS-B (EGFH / SWS)
01:14PM 52.0247 -5.1911 101° East 517 595 35,000  Level FlightAware ADS-B
01:14PM 52.0082 -5.0486 101° East 521 600 35,000  Level FlightAware ADS-B
01:14PM 52.0032 -5.0038 100° East 525 604 35,000  Level FlightAware ADS-B
01:15PM 51.9790 -4.8009 101° East 522 601 35,000  Level FlightAware ADS-B (EGBS)
01:16PM 51.9648 -4.6839 101° East 526 605 35,000  Level FlightAware ADS-B
01:17PM 51.9432 -4.5058 101° East 527 606 35,000  Level FlightAware ADS-B
01:17PM 51.9247 -4.3549 101° East 525 604 35,000  Level FlightAware ADS-B
01:18PM 51.9180 -4.3020 102° East 523 602 35,000  Level FlightAware ADS-B
01:18PM 51.9034 -4.1835 101° East 523 602 35,000  Level FlightAware ADS-B (EGBS)
01:18PM 51.8964 -4.1269 101° East 521 600 35,000  Level FlightAware ADS-B (EGFF / CWL)
01:18PM 51.8932 -4.1025 102° East 520 598 35,000  Level FlightAware ADS-B
01:18PM 51.8917 -4.0903 101° East 521 600 35,000  Level FlightAware ADS-B
01:19PM 51.8768 -3.9711 101° East 518 596 35,000  Level FlightAware ADS-B
01:19PM 51.8746 -3.9537 102° East 515 593 35,000  Level FlightAware ADS-B
01:20PM 51.8599 -3.8406 102° East 509 586 35,000  Level FlightAware ADS-B (EGBS)
01:20PM 51.8500 -3.7657 102° East 508 585 35,000  Level FlightAware ADS-B
01:20PM 51.8345 -3.6454 102° East 509 586 35,000  Level FlightAware ADS-B (EGHH / BOH)
01:21PM 51.8295 -3.6058 102° East 512 589 35,000  Level FlightAware ADS-B (EGBS)
01:21PM 51.8157 -3.4991 102° East 511 588 35,000  Level FlightAware ADS-B
01:21PM 51.8055 -3.4209 102° East 511 588 35,000  Level FlightAware ADS-B
01:22PM 51.8024 -3.3978 102° East 510 587 35,000  Level FlightAware ADS-B
01:22PM 51.7955 -3.3457 102° East 509 586 35,000  Level FlightAware ADS-B (EGHH / BOH)
01:22PM 51.7902 -3.3063 102° East 510 587 35,000  Level FlightAware ADS-B (EGFF / CWL)
01:22PM 51.7854 -3.2706 102° East 510 587 35,000  Level FlightAware ADS-B (EGHH / BOH)
01:23PM 51.7704 -3.1595 102° East 514 592 35,000  Level FlightAware ADS-B (EGFF / CWL)
01:23PM 51.7648 -3.1184 102° East 514 592 35,000  Level FlightAware ADS-B (EGBJ / GLO)
01:23PM 51.7611 -3.0914 102° East 515 593 35,000  Level FlightAware ADS-B (KSFO)
01:23PM 51.7549 -3.0455 102° East 516 594 35,000  Level FlightAware ADS-B (EGHH / BOH)
01:23PM 51.7441 -2.9649 102° East 517 595 35,000  Level FlightAware ADS-B
01:24PM 51.7375 -2.9160 102° East 518 596 35,000  Level FlightAware ADS-B
01:24PM 51.7211 -2.7976 103° East 515 593 35,000  Level FlightAware ADS-B
01:24PM 51.7201 -2.7902 103° East 514 592 35,000  Level FlightAware ADS-B (KSFO)
01:25PM 51.7055 -2.6865 103° East 510 587 35,000  Level FlightAware ADS-B
01:25PM 51.7039 -2.6754 103° East 510 587 35,000  Level FlightAware ADS-B
01:25PM 51.6898 -2.5752 103° East 508 585 35,000  Level FlightAware ADS-B
01:25PM 51.6880 -2.5619 103° East 508 585 35,000  Level FlightAware ADS-B (EGFF / CWL)
01:25PM 51.6842 -2.5347 103° East 506 582 35,000  Level FlightAware ADS-B
01:26PM 51.6732 -2.4558 103° East 509 586 35,000  Level FlightAware ADS-B
01:26PM 51.6685 -2.4219 103° East 510 587 35,000  Level FlightAware ADS-B (EGHL / QLA)
01:26PM 51.6567 -2.3382 103° East 513 590 35,000  Level FlightAware ADS-B
01:26PM 51.6525 -2.3084 103° East 514 592 35,000  Level FlightAware ADS-B (EGBS)
01:27PM 51.6405 -2.2235 103° East 515 593 35,000  Level FlightAware ADS-B
01:27PM 51.6356 -2.1885 103° East 515 593 35,000  Level FlightAware ADS-B (EGDX / DGX)
01:27PM 51.6235 -2.1037 103° East 515 593 35,000  Level FlightAware ADS-B
01:27PM 51.6235 -2.1037 242° Southwest 515 593 35,000  Level FlightAware ADS-B (EGLF / FAB)
01:28PM 51.6170 -2.0599 103° East 513 590 35,000  Level FlightAware ADS-B (EGHL / QLA)
01:28PM 51.6142 -2.0412 104° East 513 590 35,000  Level FlightAware ADS-B (EGNR / CEG)
01:28PM 51.6066 -1.9900 103° East 516 594 35,000  Level FlightAware ADS-B
01:28PM 51.6062 -1.9870 103° East 515 593 35,000  Level FlightAware ADS-B (EGHL / QLA)
01:28PM 51.6046 -1.9758 103° East 516 594 35,000  Level FlightAware ADS-B
01:28PM 51.5997 -1.9362 101° East 512 589 35,000  Level FlightAware ADS-B (EGHH / BOH)
01:28PM 51.5966 -1.9046 99° East 512 589 35,000  Level FlightAware ADS-B
01:29PM 51.5897 -1.8242 98° East 511 588 35,000 180 Level FlightAware ADS-B (KSFO)
01:29PM 51.5866 -1.7905 98° East 512 589 35,100 540 Climbing FlightAware ADS-B
01:29PM 51.5882 -1.8084 278° West 510 587 35,100  Level FlightAware ADS-B (EGKA / ESH)
01:29PM 51.5818 -1.7381 98° East 510 587 35,100  Level FlightAware ADS-B (EGWE)
01:29PM 51.5796 -1.7133 98° East 510 587 35,100 -420 Level FlightAware ADS-B
01:29PM 51.5762 -1.6775 99° East 510 587 35,000  Descending FlightAware ADS-B
01:29PM 51.5749 -1.6625 98° East 510 587 35,100  Climbing FlightAware ADS-B (EGHA)
01:30PM 51.5664 -1.5725 99° East 506 582 35,000 -240 Descending FlightAware ADS-B (EGTR / ETR)
01:30PM 51.5657 -1.5650 98° East 506 582 35,000  Level FlightAware ADS-B
01:30PM 51.5648 -1.5546 98° East 505 581 35,000  Level FlightAware ADS-B (EGUO)
01:30PM 51.5605 -1.5073 98° East 503 579 35,000  Level FlightAware ADS-B
01:30PM 51.5569 -1.4683 98° East 502 578 35,000  Level FlightAware ADS-B (EGBJ / GLO)
01:30PM 51.5553 -1.4506 98° East 501 577 35,000  Level FlightAware ADS-B
01:30PM 51.5525 -1.4206 99° East 499 574 35,000  Level FlightAware ADS-B (EGBJ / GLO)
01:31PM 51.5490 -1.3840 99° East 498 573 35,000  Level FlightAware ADS-B (EGFF / CWL)
01:31PM 51.5443 -1.3343 99° East 499 574 35,000  Level FlightAware ADS-B
01:31PM 51.5428 -1.3190 99° East 497 572 35,000  Level FlightAware ADS-B (KSFO)
01:31PM 51.5361 -1.2505 99° East 496 571 35,000  Level FlightAware ADS-B (EGNR / CEG)
01:31PM 51.5354 -1.2433 99° East 498 573 35,000  Level FlightAware ADS-B (EGHS)
01:31PM 51.5335 -1.2229 99° East 497 572 35,000  Level FlightAware ADS-B
01:31PM 51.5322 -1.2091 99° East 495 570 35,000  Level FlightAware ADS-B (KSFO)
01:32PM 51.5248 -1.1306 99° East 496 571 35,000  Level FlightAware ADS-B (KSFO)
01:32PM 51.5227 -1.1088 99° East 496 571 35,000  Level FlightAware ADS-B
01:32PM 51.5193 -1.0733 99° East 495 570 35,000  Level FlightAware ADS-B (KSFO)
01:32PM 51.5139 -1.0182 99° East 494 568 35,000  Level FlightAware ADS-B (KSFO)
01:32PM 51.5111 -0.9893 99° East 495 570 35,000  Level FlightAware ADS-B
01:33PM 51.5061 -0.9387 99° East 494 568 35,000  Level FlightAware ADS-B
01:33PM 51.5004 -0.8803 99° East 493 567 35,000  Level FlightAware ADS-B
01:33PM 51.4953 -0.8299 99° East 493 567 35,000  Level FlightAware ADS-B (EGTR / ETR)
01:33PM 51.4891 -0.7682 99° East 492 566 35,000  Level FlightAware ADS-B
01:34PM 51.4836 -0.7122 99° East 491 565 35,000  Level FlightAware ADS-B (EGLC / LCY)
01:34PM 51.4783 -0.6585 99° East 490 564 35,000  Level FlightAware ADS-B
01:34PM 51.4712 -0.5893 99° East 489 563 35,000  Level FlightAware ADS-B (EGDM)
01:34PM 51.4672 -0.5493 99° East 488 562 35,000  Level FlightAware ADS-B
01:35PM 51.4635 -0.5130 99° East 489 563 35,000  Level FlightAware ADS-B (EGSR)
01:35PM 51.4557 -0.4388 100° East 490 564 35,000  Level FlightAware ADS-B
01:35PM 51.4506 -0.3903 99° East 490 564 35,000  Level FlightAware ADS-B
01:35PM 51.4446 -0.3317 99° East 491 565 35,000  Level FlightAware ADS-B
01:36PM 51.4397 -0.2823 99° East 492 566 35,000  Level FlightAware ADS-B (EGLC / LCY)
01:36PM 51.4336 -0.2227 99° East 493 567 35,000  Level FlightAware ADS-B
01:36PM 51.4283 -0.1724 100° East 494 568 35,000  Level FlightAware ADS-B (EGHS)
01:36PM 51.4221 -0.1142 100° East 494 568 35,000  Level FlightAware ADS-B
01:37PM 51.4167 -0.0632 100° East 494 568 35,000  Level FlightAware ADS-B
01:37PM 51.4100 -0.0028 100° East 495 570 35,000  Level FlightAware ADS-B
01:37PM 51.4029 0.0643 100° East 495 570 35,000  Level FlightAware ADS-B (EGDM)
01:37PM 51.3986 0.1054 100° East 497 572 35,000 120 Level FlightAware ADS-B
01:38PM 51.3899 0.1857 100° East 497 572 35,100 180 Climbing FlightAware ADS-B
01:38PM 51.3865 0.2183 99° East 498 573 35,100  Level FlightAware ADS-B
01:38PM 51.3768 0.3073 100° East 498 573 35,100  Level FlightAware ADS-B
01:38PM 51.3746 0.3275 100° East 497 572 35,100  Level FlightAware ADS-B
01:39PM 51.3702 0.3672 100° East 497 572 35,100 -240 Level FlightAware ADS-B (EGLF / FAB)
01:39PM 51.3622 0.4385 100° East 496 571 35,000 -240 Descending FlightAware ADS-B
01:39PM 51.3584 0.4723 100° East 495 570 35,000  Level FlightAware ADS-B (EGSR)
01:39PM 51.3500 0.5477 100° East 495 570 35,000  Level FlightAware ADS-B
01:40PM 51.3494 0.5527 101° East 493 567 35,000  Level FlightAware ADS-B (EGHH / BOH)
01:40PM 51.3425 0.6135 100° East 494 568 35,000  Level FlightAware ADS-B (EGSR)
01:40PM 51.3379 0.6551 100° East 494 568 35,000  Level FlightAware ADS-B
01:40PM 51.3298 0.7273 100° East 493 567 35,000  Level FlightAware ADS-B
01:40PM 51.3257 0.7630 100° East 492 566 35,000  Level FlightAware ADS-B
01:41PM 51.3146 0.8605 100° East 489 563 35,000  Level FlightAware ADS-B (EGMD / LYX)
01:41PM 51.3136 0.8697 100° East 490 564 35,000  Level FlightAware ADS-B
01:41PM 51.3128 0.8761 101° East 489 563 35,000  Level FlightAware ADS-B (EGKA / ESH)
01:41PM 51.3109 0.8923 100° East 489 563 35,000  Level FlightAware ADS-B (EGHL / QLA)
01:41PM 51.3083 0.9157 100° East 487 560 35,000  Level FlightAware ADS-B (EGTR / ETR)
01:41PM 51.3010 0.9779 101° East 488 562 35,000  Level FlightAware ADS-B
01:42PM 51.3054 0.9398 281° West 487 560 35,000  Level FlightAware ADS-B
01:42PM 51.3054 0.9398 281° West 488 562 35,000  Level FlightAware ADS-B (ZSSS / SHA)
01:42PM 51.2903 1.0690 101° East 486 559 35,000  Level FlightAware ADS-B (EGHH / BOH)
01:42PM 51.2883 1.0858 101° East 487 560 35,000  Level FlightAware ADS-B
01:42PM 51.2842 1.1203 101° East 487 560 35,000  Level FlightAware ADS-B (EGHS)
01:42PM 51.2825 1.1344 101° East 485 558 35,000  Level FlightAware ADS-B (EGHH / BOH)
01:42PM 51.2805 1.1513 101° East 485 558 35,000  Level FlightAware ADS-B (EGTR / ETR)
01:43PM 51.2748 1.1992 101° East 487 560 35,000  Level FlightAware ADS-B
01:43PM 51.2722 1.2218 100° East 488 562 35,000  Level FlightAware ADS-B (EGHS)
01:43PM 51.2623 1.3072 100° East 489 563 35,000  Level FlightAware ADS-B
01:43PM 51.2546 1.3731 101° East 489 563 35,000  Level FlightAware ADS-B (EGMD / LYX)
01:44PM 51.2496 1.4156 101° East 491 565 35,000  Level FlightAware ADS-B
01:44PM 51.2467 1.4390 101° East 488 562 35,000  Level FlightAware ADS-B (EGTR / ETR)
01:44PM 51.2457 1.4481 101° East 488 562 35,000  Level FlightAware ADS-B (EGHH / BOH)
01:44PM 51.2410 1.4842 102° East 490 564 35,000  Level FlightAware ADS-B (EGHL / QLA)
01:44PM 51.2300 1.5543 104° East 490 564 35,000  Level FlightAware ADS-B (EGHL / QLA)
01:44PM 51.2252 1.5838 105° East 490 564 35,000  Level FlightAware ADS-B (EGTR / ETR)
01:44PM 51.2210 1.6097 105° East 491 565 35,000  Level FlightAware ADS-B (EGHL / QLA)
01:45PM 51.2137 1.6553 104° East 492 566 35,000  Level FlightAware ADS-B
01:45PM 51.2102 1.6770 104° East 493 567 35,000  Level FlightAware ADS-B (EGHS)
01:45PM 51.2025 1.7255 104° East 493 567 35,000  Level FlightAware ADS-B
01:45PM 51.2025 1.7255 172° South 493 567 35,000  Level FlightAware ADS-B (EGHS)
01:45PM 51.1971 1.7600 104° East 494 568 35,000 180 Level FlightAware ADS-B (EGKA / ESH)
01:46PM 51.1856 1.8324 104° East 493 567 35,100 180 Climbing FlightAware ADS-B
01:46PM 51.1788 1.8745 104° East 492 566 35,100 -240 Level FlightAware ADS-B (KAUN)
01:46PM 51.1679 1.9436 104° East 495 570 35,000 -300 Descending FlightAware ADS-B
01:46PM 51.1652 1.9605 104° East 494 568 35,000 180 Level FlightAware ADS-B (EGNR / CEG)
01:47PM 51.1508 2.0530 104° East 495 570 35,100 180 Climbing FlightAware ADS-B
01:47PM 51.1484 2.0685 104° East 495 570 35,100  Level FlightAware ADS-B
01:47PM 51.1337 2.1615 104° East 495 570 35,100  Level FlightAware ADS-B
01:47PM 51.1301 2.1833 105° East 492 566 35,100 -180 Level FlightAware ADS-B (KAUN)
01:48PM 51.1122 2.2939 104° East 492 566 35,000 -120 Descending FlightAware ADS-B
01:48PM 51.0938 2.4065 105° East 489 563 35,000  Level FlightAware ADS-B
01:49PM 51.0736 2.5304 105° East 485 558 35,000  Level FlightAware ADS-B (EGMD / LYX)
01:49PM 51.0578 2.6276 104° East 485 558 35,000  Level FlightAware ADS-B
01:49PM 51.0537 2.6524 104° East 482 555 35,000  Level FlightAware ADS-B (KAUN)
01:50PM 51.0360 2.7606 105° East 483 556 35,000  Level FlightAware ADS-B
01:51PM 51.0212 2.8488 105° East 482 555 35,000  Level FlightAware ADS-B
01:51PM 50.9947 3.0080 105° East 484 557 35,000  Level FlightAware ADS-B
01:52PM 50.9867 3.0554 105° East 487 560 35,000  Level FlightAware ADS-B
01:52PM 50.9592 3.2188 105° East 489 563 35,000 60 Level FlightAware ADS-B
01:53PM 50.9377 3.3461 105° East 491 565 35,100 120 Climbing FlightAware ADS-B (KAUN)
01:53PM 50.9413 3.3246 285° West 491 565 35,100  Level FlightAware ADS-B (EGLF / FAB)
01:53PM 50.9154 3.4734 105° East 492 566 35,100 -120 Level FlightAware ADS-B (KAUN)
01:54PM 50.8959 3.5866 105° East 493 567 35,000 -120 Descending FlightAware ADS-B (EGKA / ESH)
01:55PM 50.8745 3.7090 105° East 495 570 35,000 60 Level FlightAware ADS-B (EGLF / FAB)
01:55PM 50.8534 3.8291 105° East 493 567 35,100  Climbing FlightAware ADS-B (KAUN)
01:56PM 50.8310 3.9548 105° East 478 550 35,000 -120 Descending FlightAware UK
01:56PM 50.8164 4.0381 105° East 485 558 35,000  Level FlightAware ADS-B (EHRD / RTM)
01:57PM 50.7950 4.1585 105° East 470 541 35,000  Level FlightAware UK
01:57PM 50.8059 4.0978 105° East 479 551 35,000  Level FlightAware ADS-B (EGLF / FAB)
01:58PM 50.7733 4.2770 106° East 476 548 35,000  Level FlightAware ADS-B
01:58PM 50.7387 4.4668 106° East 480 552 35,000  Level FlightAware ADS-B (KAUN)
01:59PM 50.7150 4.5990 106° East 478 550 35,000  Level FlightAware ADS-B (KAUN)
02:00PM 50.7055 4.6503 106° East 478 550 35,000  Level FlightAware ADS-B
02:01PM 50.6562 4.9150 106° East 473 544 35,000  Level FlightAware ADS-B (KAUN)
02:01PM 50.6517 4.9388 107° East 475 547 35,000  Level FlightAware ADS-B (EHRD / RTM)
02:01PM 50.6315 5.0452 107° East 475 547 35,000  Level FlightAware ADS-B (EHRD / RTM)
02:02PM 50.6058 5.1818 106° East 472 543 35,000  Level FlightAware ADS-B (KAUN)
02:03PM 50.5751 5.3464 106° East 475 547 35,000 -540 Level FlightAware ADS-B (KAUN)
02:03PM 50.5507 5.4770 106° East 463 533 34,200 -1,380 Descending FlightAware ADS-B (KAUN)
02:04PM 50.5271 5.6015 107° East 451 519 33,200 -1,620 Descending FlightAware ADS-B (KAUN)
02:05PM 50.5000 5.7464 106° East 441 507 31,900 -2,280 Descending FlightAware ADS-B (KAUN)
02:05PM 50.4954 5.7702 107° East 436 502 31,100 -1,560 Descending FlightAware ADS-B (EHRD / RTM)
02:06PM 50.4755 5.8745 107° East 426 490 30,800 -1,080 Descending FlightAware ADS-B (KAUN)
02:06PM 50.4582 5.9631 107° East 423 487 30,000 -2,220 Descending FlightAware ADS-B (KAUN)
02:07PM 50.4528 5.9901 107° East 446 513 28,500 -2,100 Descending FlightAware ADS-B (EDKL)
02:07PM 50.4219 6.1508 107° East 445 512 27,800 -1,500 Descending FlightAware ADS-B (EDKL)
02:08PM 50.4253 6.1336 287° West 435 501 26,900 -1,560 Descending FlightAware ADS-B (KAUN)
02:08PM 50.3949 6.2887 107° East 431 496 26,000 -780 Descending FlightAware ADS-B (EDKL)
02:09PM 50.3588 6.4702 107° East 431 496 26,000 720 Level FlightAware ADS-B (EDKL)
02:09PM 50.3443 6.5440 107° East 421 484 26,900 -1,380 Climbing FlightAware ADS-B (KAUN)
02:19PM 50.0447 8.0207 111° Southeast 256 295 12,000 -1,560 Descending FlightAware ADS-B
02:22PM 50.0266 8.5269 111° Southeast  Level FlightAware Approximate
02:23PM 50.0264 8.5431 111° Southeast  Level Estimated
02:24PM 50.0264 8.5431 111° Southeast  Level Estimated
02:25PM 50.0264 8.5431 111° Southeast  Level Estimated
02:26PM 50.0264 8.5431 111° Southeast  Level Estimated
02:27PM 50.0264 8.5431 111° Southeast  Level Estimated
02:28PM 50.0264 8.5431 111° Southeast  Level Estimated
02:29PM 50.0264 8.5431 111° Southeast  Level Estimated
02:30PM 50.0264 8.5431 111° Southeast  Level Estimated
02:31PM 50.0264 8.5431 111° Southeast  Level Estimated
02:32PM 50.0264 8.5431 111° Southeast  Level Estimated
02:33PM 50.0264 8.5431 111° Southeast  Level Estimated
02:34PM 50.0264 8.5431 111° Southeast  Level Estimated
02:35PM 50.0264 8.5431 111° Southeast  Level Estimated
02:36PM 50.0264 8.5431 111° Southeast  Level Estimated
02:37PM 50.0264 8.5431 111° Southeast  Level Estimated